Terminal Aerodrome Forecast
Issued by NWS

Home | Current Version | Previous Version | Text Only | Print | Product List | Glossary On
Versions: 1 2 3 4 5 6 7 8 9 10 11 12 13 14 15 16 17 18 19 20 21 22 23 24 25 26 27 28
000
FTUS43 KLSX 302322
TAFCPS
TAF
KCPS 302322Z 0100/0124 33004KT P6SM BKN150
     FM010900 10006KT 6SM BR VCSH OVC040
     FM011200 23005KT 6SM SHRA BR OVC040
     FM011800 15005KT P6SM VCTS OVC040CB=

USA.gov is the U.S. government's official web portal to all federal, state and local government web resources and services.